sensor_id;sensor_type;location;lat;lon;timestamp;pressure;altitude;pressure_sealevel;temperature;humidity
39793;BME280;26080;42.264;24.536;2023-07-29T00:01:51;99013.50;;;17.68;95.71
39793;BME280;26080;42.264;24.536;2023-07-29T00:04:19;99000.31;;;17.57;98.67
39793;BME280;26080;42.264;24.536;2023-07-29T00:06:45;99010.28;;;17.64;100.00
39793;BME280;26080;42.264;24.536;2023-07-29T00:09:10;99011.75;;;17.57;100.00
39793;BME280;26080;42.264;24.536;2023-07-29T00:11:36;99012.97;;;17.42;99.58
39793;BME280;26080;42.264;24.536;2023-07-29T00:14:01;99022.84;;;17.29;98.21
39793;BME280;26080;42.264;24.536;2023-07-29T00:16:27;99019.13;;;17.09;98.74
39793;BME280;26080;42.264;24.536;2023-07-29T00:18:53;99018.50;;;16.94;97.63
39793;BME280;26080;42.264;24.536;2023-07-29T00:21:18;99024.41;;;16.86;97.07
39793;BME280;26080;42.264;24.536;2023-07-29T00:23:45;99017.66;;;16.82;94.80
39793;BME280;26080;42.264;24.536;2023-07-29T00:26:10;99013.00;;;16.86;95.52
39793;BME280;26080;42.264;24.536;2023-07-29T00:28:36;99011.28;;;16.85;92.81
39793;BME280;26080;42.264;24.536;2023-07-29T00:31:02;99017.78;;;16.92;91.00
39793;BME280;26080;42.264;24.536;2023-07-29T00:33:27;99012.25;;;16.95;89.25
39793;BME280;26080;42.264;24.536;2023-07-29T00:35:53;98998.91;;;16.97;87.41
39793;BME280;26080;42.264;24.536;2023-07-29T00:38:18;98992.69;;;16.86;88.13
39793;BME280;26080;42.264;24.536;2023-07-29T00:40:44;99017.69;;;17.05;85.63
39793;BME280;26080;42.264;24.536;2023-07-29T00:43:09;99009.97;;;17.13;84.56
39793;BME280;26080;42.264;24.536;2023-07-29T00:45:35;99008.78;;;17.06;86.85
39793;BME280;26080;42.264;24.536;2023-07-29T00:48:02;99015.75;;;17.07;87.02
39793;BME280;26080;42.264;24.536;2023-07-29T00:50:28;99003.00;;;17.12;85.85
39793;BME280;26080;42.264;24.536;2023-07-29T00:52:55;99015.03;;;17.16;84.72
39793;BME280;26080;42.264;24.536;2023-07-29T00:55:22;98995.19;;;17.10;84.56
39793;BME280;26080;42.264;24.536;2023-07-29T00:57:47;99016.22;;;17.23;85.71
39793;BME280;26080;42.264;24.536;2023-07-29T01:00:15;99005.06;;;17.20;84.64
39793;BME280;26080;42.264;24.536;2023-07-29T01:02:42;98999.63;;;17.21;84.24
39793;BME280;26080;42.264;24.536;2023-07-29T01:05:11;98987.63;;;17.17;84.21
39793;BME280;26080;42.264;24.536;2023-07-29T01:12:47;99001.31;;;17.33;82.80
39793;BME280;26080;42.264;24.536;2023-07-29T01:17:46;99012.97;;;17.42;82.49
39793;BME280;26080;42.264;24.536;2023-07-29T01:20:16;99014.88;;;17.51;81.88
39793;BME280;26080;42.264;24.536;2023-07-29T01:22:42;99007.31;;;17.35;81.87
39793;BME280;26080;42.264;24.536;2023-07-29T01:25:08;99015.72;;;17.40;80.94
39793;BME280;26080;42.264;24.536;2023-07-29T01:27:33;98995.44;;;17.30;80.72
39793;BME280;26080;42.264;24.536;2023-07-29T01:30:00;99020.56;;;17.35;81.21
39793;BME280;26080;42.264;24.536;2023-07-29T01:37:51;99019.22;;;16.96;82.17
39793;BME280;26080;42.264;24.536;2023-07-29T01:40:18;98995.78;;;16.80;80.94
39793;BME280;26080;42.264;24.536;2023-07-29T01:42:44;99009.97;;;16.79;81.01
39793;BME280;26080;42.264;24.536;2023-07-29T01:45:11;99021.50;;;16.78;81.54
39793;BME280;26080;42.264;24.536;2023-07-29T01:47:36;99009.84;;;16.81;80.97
39793;BME280;26080;42.264;24.536;2023-07-29T01:50:06;99012.13;;;16.85;79.99
39793;BME280;26080;42.264;24.536;2023-07-29T01:52:31;99027.06;;;16.86;79.05
39793;BME280;26080;42.264;24.536;2023-07-29T01:54:57;99030.41;;;16.77;79.08
39793;BME280;26080;42.264;24.536;2023-07-29T01:57:22;99033.06;;;16.77;78.67
39793;BME280;26080;42.264;24.536;2023-07-29T01:59:48;99026.78;;;16.67;79.62
39793;BME280;26080;42.264;24.536;2023-07-29T02:02:13;99029.19;;;16.70;78.45
39793;BME280;26080;42.264;24.536;2023-07-29T02:04:38;99034.47;;;16.70;78.99
39793;BME280;26080;42.264;24.536;2023-07-29T02:07:04;99025.56;;;16.71;78.51
39793;BME280;26080;42.264;24.536;2023-07-29T02:09:30;99025.47;;;16.73;77.62
39793;BME280;26080;42.264;24.536;2023-07-29T02:11:56;99022.00;;;16.72;77.64
39793;BME280;26080;42.264;24.536;2023-07-29T02:14:22;99026.53;;;16.70;77.95
39793;BME280;26080;42.264;24.536;2023-07-29T02:16:48;99031.56;;;16.62;80.02
39793;BME280;26080;42.264;24.536;2023-07-29T02:19:14;99027.19;;;16.50;83.25
39793;BME280;26080;42.264;24.536;2023-07-29T02:21:40;99028.88;;;16.51;80.43
39793;BME280;26080;42.264;24.536;2023-07-29T02:24:05;99007.69;;;16.40;79.67
39793;BME280;26080;42.264;24.536;2023-07-29T02:26:31;99027.44;;;16.47;80.06
39793;BME280;26080;42.264;24.536;2023-07-29T02:28:56;99025.44;;;16.62;78.59
39793;BME280;26080;42.264;24.536;2023-07-29T02:31:23;99031.63;;;16.73;78.16
39793;BME280;26080;42.264;24.536;2023-07-29T02:33:48;99030.66;;;16.74;77.94
39793;BME280;26080;42.264;24.536;2023-07-29T02:36:15;99042.72;;;16.66;79.28
39793;BME280;26080;42.264;24.536;2023-07-29T02:38:41;99043.81;;;16.63;79.78
39793;BME280;26080;42.264;24.536;2023-07-29T02:41:07;99045.69;;;16.50;80.90
39793;BME280;26080;42.264;24.536;2023-07-29T02:43:35;99027.03;;;16.40;80.07
39793;BME280;26080;42.264;24.536;2023-07-29T02:46:00;99043.66;;;16.53;80.29
39793;BME280;26080;42.264;24.536;2023-07-29T02:48:26;99044.94;;;16.37;81.24
39793;BME280;26080;42.264;24.536;2023-07-29T02:50:52;99044.44;;;16.32;82.35
39793;BME280;26080;42.264;24.536;2023-07-29T02:53:17;99048.00;;;16.19;84.50
39793;BME280;26080;42.264;24.536;2023-07-29T02:55:42;99033.06;;;16.07;84.33
39793;BME280;26080;42.264;24.536;2023-07-29T02:58:08;99043.09;;;16.02;84.76
39793;BME280;26080;42.264;24.536;2023-07-29T03:00:34;99047.16;;;15.95;85.53
39793;BME280;26080;42.264;24.536;2023-07-29T03:02:59;99054.06;;;15.85;86.25
39793;BME280;26080;42.264;24.536;2023-07-29T03:05:27;99047.81;;;15.86;86.13
39793;BME280;26080;42.264;24.536;2023-07-29T03:07:53;99054.00;;;15.74;86.24
39793;BME280;26080;42.264;24.536;2023-07-29T03:10:21;99057.19;;;15.66;86.80
39793;BME280;26080;42.264;24.536;2023-07-29T03:12:47;99061.94;;;15.61;87.04
39793;BME280;26080;42.264;24.536;2023-07-29T03:15:13;99042.66;;;15.35;87.91
39793;BME280;26080;42.264;24.536;2023-07-29T03:17:38;99071.16;;;15.43;88.27
39793;BME280;26080;42.264;24.536;2023-07-29T03:20:04;99072.63;;;15.34;88.91
39793;BME280;26080;42.264;24.536;2023-07-29T03:22:30;99075.28;;;15.34;89.04
39793;BME280;26080;42.264;24.536;2023-07-29T03:24:55;99084.03;;;15.34;90.24
39793;BME280;26080;42.264;24.536;2023-07-29T03:27:21;99066.97;;;15.27;91.84
39793;BME280;26080;42.264;24.536;2023-07-29T03:29:46;99069.50;;;15.29;92.88
39793;BME280;26080;42.264;24.536;2023-07-29T03:32:11;99074.53;;;15.45;95.73
39793;BME280;26080;42.264;24.536;2023-07-29T03:34:37;99055.34;;;15.30;93.90
39793;BME280;26080;42.264;24.536;2023-07-29T03:37:03;99072.94;;;15.42;93.63
39793;BME280;26080;42.264;24.536;2023-07-29T03:39:29;99071.25;;;15.41;93.40
39793;BME280;26080;42.264;24.536;2023-07-29T03:41:54;99070.41;;;15.53;92.18
39793;BME280;26080;42.264;24.536;2023-07-29T03:44:20;99079.38;;;15.63;92.53
39793;BME280;26080;42.264;24.536;2023-07-29T03:46:45;99049.44;;;15.76;91.55
39793;BME280;26080;42.264;24.536;2023-07-29T03:49:11;99073.47;;;16.20;90.86
39793;BME280;26080;42.264;24.536;2023-07-29T03:51:36;99075.38;;;16.88;88.67
39793;BME280;26080;42.264;24.536;2023-07-29T03:54:02;99077.31;;;17.54;83.72
39793;BME280;26080;42.264;24.536;2023-07-29T03:56:27;99078.09;;;18.42;80.03
39793;BME280;26080;42.264;24.536;2023-07-29T03:58:53;99062.66;;;19.40;75.29
39793;BME280;26080;42.264;24.536;2023-07-29T04:01:19;99045.06;;;20.08;70.04
39793;BME280;26080;42.264;24.536;2023-07-29T04:03:45;99074.56;;;21.12;65.85
39793;BME280;26080;42.264;24.536;2023-07-29T04:06:11;99082.06;;;21.91;62.46
39793;BME280;26080;42.264;24.536;2023-07-29T04:08:37;99076.19;;;22.32;56.97
39793;BME280;26080;42.264;24.536;2023-07-29T04:11:03;99079.06;;;22.92;56.27
39793;BME280;26080;42.264;24.536;2023-07-29T04:13:28;99060.44;;;23.34;52.83
39793;BME280;26080;42.264;24.536;2023-07-29T04:15:54;99080.72;;;24.46;50.94
39793;BME280;26080;42.264;24.536;2023-07-29T04:18:19;99081.81;;;25.33;46.42
39793;BME280;26080;42.264;24.536;2023-07-29T04:20:45;99077.66;;;25.78;46.07
39793;BME280;26080;42.264;24.536;2023-07-29T04:23:10;99077.78;;;26.15;44.18
39793;BME280;26080;42.264;24.536;2023-07-29T04:25:36;99083.31;;;25.91;45.03
39793;BME280;26080;42.264;24.536;2023-07-29T04:28:01;99085.06;;;26.61;44.54
39793;BME280;26080;42.264;24.536;2023-07-29T04:30:28;99088.53;;;27.22;43.63
39793;BME280;26080;42.264;24.536;2023-07-29T04:32:54;99083.19;;;27.66;43.28
39793;BME280;26080;42.264;24.536;2023-07-29T04:35:19;99083.81;;;27.97;41.01
39793;BME280;26080;42.264;24.536;2023-07-29T04:37:45;99091.06;;;28.54;39.68
39793;BME280;26080;42.264;24.536;2023-07-29T04:40:13;99087.56;;;28.82;37.72
39793;BME280;26080;42.264;24.536;2023-07-29T04:42:38;99082.41;;;29.08;37.24
39793;BME280;26080;42.264;24.536;2023-07-29T04:45:04;99087.22;;;29.75;34.96
39793;BME280;26080;42.264;24.536;2023-07-29T04:47:30;99083.84;;;30.28;33.78
39793;BME280;26080;42.264;24.536;2023-07-29T04:49:55;99085.13;;;30.32;32.51
39793;BME280;26080;42.264;24.536;2023-07-29T04:52:21;99090.59;;;30.58;33.15
39793;BME280;26080;42.264;24.536;2023-07-29T04:54:47;99092.69;;;31.03;31.41
39793;BME280;26080;42.264;24.536;2023-07-29T04:57:12;99096.63;;;30.67;31.13
39793;BME280;26080;42.264;24.536;2023-07-29T04:59:38;99098.72;;;30.65;31.77
39793;BME280;26080;42.264;24.536;2023-07-29T05:02:03;99092.06;;;31.20;30.43
39793;BME280;26080;42.264;24.536;2023-07-29T05:04:29;99093.72;;;31.41;30.18
39793;BME280;26080;42.264;24.536;2023-07-29T05:06:54;99089.13;;;31.35;30.71
39793;BME280;26080;42.264;24.536;2023-07-29T05:09:20;99090.59;;;31.05;31.68
39793;BME280;26080;42.264;24.536;2023-07-29T05:11:46;99095.72;;;30.33;33.56
39793;BME280;26080;42.264;24.536;2023-07-29T05:14:16;99098.81;;;30.17;33.86
39793;BME280;26080;42.264;24.536;2023-07-29T05:16:42;99098.00;;;29.75;34.29
39793;BME280;26080;42.264;24.536;2023-07-29T05:19:08;99101.22;;;29.30;36.56
39793;BME280;26080;42.264;24.536;2023-07-29T05:21:33;99103.03;;;28.73;38.05
39793;BME280;26080;42.264;24.536;2023-07-29T05:23:59;99105.41;;;28.04;40.64
39793;BME280;26080;42.264;24.536;2023-07-29T05:26:24;99099.28;;;27.07;44.59
39793;BME280;26080;42.264;24.536;2023-07-29T05:28:50;99106.22;;;26.78;46.12
39793;BME280;26080;42.264;24.536;2023-07-29T05:31:15;99098.06;;;26.49;46.64
39793;BME280;26080;42.264;24.536;2023-07-29T05:33:41;99109.69;;;26.10;47.78
39793;BME280;26080;42.264;24.536;2023-07-29T05:36:06;99124.16;;;25.46;50.77
39793;BME280;26080;42.264;24.536;2023-07-29T05:38:32;99124.72;;;25.25;51.96
39793;BME280;26080;42.264;24.536;2023-07-29T05:40:57;99129.66;;;25.60;49.38
39793;BME280;26080;42.264;24.536;2023-07-29T05:43:26;99135.72;;;25.46;50.19
39793;BME280;26080;42.264;24.536;2023-07-29T05:45:52;99136.91;;;25.44;51.92
39793;BME280;26080;42.264;24.536;2023-07-29T05:48:19;99139.88;;;25.57;50.72
39793;BME280;26080;42.264;24.536;2023-07-29T05:50:45;99138.03;;;25.57;51.84
39793;BME280;26080;42.264;24.536;2023-07-29T05:53:10;99138.13;;;25.25;55.79
39793;BME280;26080;42.264;24.536;2023-07-29T05:55:36;99130.78;;;25.10;53.83
39793;BME280;26080;42.264;24.536;2023-07-29T05:58:01;99134.78;;;24.98;55.97
39793;BME280;26080;42.264;24.536;2023-07-29T06:00:27;99130.75;;;24.78;57.36
39793;BME280;26080;42.264;24.536;2023-07-29T06:02:52;99126.72;;;24.74;56.51
39793;BME280;26080;42.264;24.536;2023-07-29T06:05:18;99130.75;;;24.70;57.37
39793;BME280;26080;42.264;24.536;2023-07-29T06:07:44;99122.41;;;24.81;55.28
39793;BME280;26080;42.264;24.536;2023-07-29T06:10:14;99119.38;;;24.76;56.20
39793;BME280;26080;42.264;24.536;2023-07-29T06:12:42;99122.72;;;24.78;58.19
39793;BME280;26080;42.264;24.536;2023-07-29T06:15:08;99118.53;;;24.75;56.91
39793;BME280;26080;42.264;24.536;2023-07-29T06:17:34;99111.69;;;24.81;57.01
39793;BME280;26080;42.264;24.536;2023-07-29T06:19:59;99091.06;;;24.65;57.06
39793;BME280;26080;42.264;24.536;2023-07-29T06:22:25;99118.38;;;24.69;57.05
39793;BME280;26080;42.264;24.536;2023-07-29T06:24:50;99113.66;;;24.79;57.66
39793;BME280;26080;42.264;24.536;2023-07-29T06:27:16;99106.63;;;24.78;56.52
39793;BME280;26080;42.264;24.536;2023-07-29T06:29:41;99106.00;;;24.68;55.15
39793;BME280;26080;42.264;24.536;2023-07-29T06:32:07;99100.78;;;24.58;54.71
39793;BME280;26080;42.264;24.536;2023-07-29T06:34:32;99114.00;;;24.60;58.55
39793;BME280;26080;42.264;24.536;2023-07-29T06:36:58;99102.97;;;24.63;55.69
39793;BME280;26080;42.264;24.536;2023-07-29T06:39:23;99098.94;;;24.67;58.65
39793;BME280;26080;42.264;24.536;2023-07-29T06:41:49;99107.31;;;24.88;60.37
39793;BME280;26080;42.264;24.536;2023-07-29T06:44:14;99110.84;;;25.05;53.30
39793;BME280;26080;42.264;24.536;2023-07-29T06:46:40;99109.16;;;25.12;53.14
39793;BME280;26080;42.264;24.536;2023-07-29T06:49:05;99101.44;;;25.25;52.86
39793;BME280;26080;42.264;24.536;2023-07-29T06:51:31;99108.44;;;25.34;52.01
39793;BME280;26080;42.264;24.536;2023-07-29T06:54:00;99108.66;;;25.25;52.73
39793;BME280;26080;42.264;24.536;2023-07-29T06:56:25;99099.72;;;25.32;49.16
39793;BME280;26080;42.264;24.536;2023-07-29T06:58:51;99100.09;;;25.29;50.34
39793;BME280;26080;42.264;24.536;2023-07-29T07:01:16;99102.94;;;25.36;51.63
39793;BME280;26080;42.264;24.536;2023-07-29T07:03:42;99092.53;;;25.41;50.06
39793;BME280;26080;42.264;24.536;2023-07-29T07:06:08;99082.28;;;25.45;50.02
39793;BME280;26080;42.264;24.536;2023-07-29T07:08:33;99089.09;;;25.63;49.60
39793;BME280;26080;42.264;24.536;2023-07-29T07:10:59;99067.66;;;25.63;51.10
39793;BME280;26080;42.264;24.536;2023-07-29T07:13:24;99087.31;;;25.87;52.50
39793;BME280;26080;42.264;24.536;2023-07-29T07:15:50;99080.56;;;25.99;50.93
39793;BME280;26080;42.264;24.536;2023-07-29T07:18:19;99056.59;;;25.97;49.28
39793;BME280;26080;42.264;24.536;2023-07-29T07:20:50;99074.63;;;26.12;49.65
39793;BME280;26080;42.264;24.536;2023-07-29T07:23:17;99073.53;;;25.98;50.06
39793;BME280;26080;42.264;24.536;2023-07-29T07:25:42;99055.97;;;25.87;51.71
39793;BME280;26080;42.264;24.536;2023-07-29T07:28:08;99083.56;;;26.04;49.56
39793;BME280;26080;42.264;24.536;2023-07-29T07:30:34;99064.09;;;26.02;51.84
39793;BME280;26080;42.264;24.536;2023-07-29T07:32:59;99082.28;;;26.23;51.26
39793;BME280;26080;42.264;24.536;2023-07-29T07:35:25;99075.00;;;26.32;51.82
39793;BME280;26080;42.264;24.536;2023-07-29T07:37:50;99081.13;;;26.48;56.75
39793;BME280;26080;42.264;24.536;2023-07-29T07:40:16;99062.13;;;26.50;58.05
39793;BME280;26080;42.264;24.536;2023-07-29T07:42:41;99075.00;;;26.54;57.48
39793;BME280;26080;42.264;24.536;2023-07-29T07:45:07;99075.72;;;26.71;57.60
39793;BME280;26080;42.264;24.536;2023-07-29T07:47:32;99075.00;;;26.77;55.86
39793;BME280;26080;42.264;24.536;2023-07-29T07:49:58;99069.63;;;26.77;59.45
39793;BME280;26080;42.264;24.536;2023-07-29T07:52:23;99072.97;;;26.79;55.98
39793;BME280;26080;42.264;24.536;2023-07-29T07:54:53;99077.50;;;26.79;59.07
39793;BME280;26080;42.264;24.536;2023-07-29T07:57:20;99074.16;;;26.77;53.41
39793;BME280;26080;42.264;24.536;2023-07-29T07:59:46;99063.88;;;26.80;53.25
39793;BME280;26080;42.264;24.536;2023-07-29T08:02:12;99068.88;;;26.83;55.65
39793;BME280;26080;42.264;24.536;2023-07-29T08:04:37;99057.44;;;26.90;54.49
39793;BME280;26080;42.264;24.536;2023-07-29T08:07:03;99055.25;;;27.08;55.17
39793;BME280;26080;42.264;24.536;2023-07-29T08:09:28;99051.28;;;27.19;52.15
39793;BME280;26080;42.264;24.536;2023-07-29T08:11:54;99045.06;;;27.18;50.48
39793;BME280;26080;42.264;24.536;2023-07-29T08:14:19;99044.31;;;27.24;49.99
39793;BME280;26080;42.264;24.536;2023-07-29T08:16:45;99038.56;;;27.27;51.14
39793;BME280;26080;42.264;24.536;2023-07-29T08:19:10;99036.34;;;27.31;53.23
39793;BME280;26080;42.264;24.536;2023-07-29T08:21:36;99035.41;;;27.38;46.80
39793;BME280;26080;42.264;24.536;2023-07-29T08:24:01;99017.06;;;27.27;45.85
39793;BME280;26080;42.264;24.536;2023-07-29T08:26:27;99027.81;;;27.27;45.82
39793;BME280;26080;42.264;24.536;2023-07-29T08:28:52;99015.78;;;27.23;47.67
39793;BME280;26080;42.264;24.536;2023-07-29T08:31:18;99025.13;;;27.42;51.79
39793;BME280;26080;42.264;24.536;2023-07-29T08:33:43;99022.03;;;27.60;47.81
39793;BME280;26080;42.264;24.536;2023-07-29T08:36:09;99022.03;;;27.60;46.66
39793;BME280;26080;42.264;24.536;2023-07-29T08:38:34;99015.38;;;27.70;51.31
39793;BME280;26080;42.264;24.536;2023-07-29T08:43:41;99000.88;;;27.86;46.89
39793;BME280;26080;42.264;24.536;2023-07-29T08:46:09;99013.69;;;28.06;52.68
39793;BME280;26080;42.264;24.536;2023-07-29T08:48:43;99001.25;;;28.04;48.62
39793;BME280;26080;42.264;24.536;2023-07-29T08:51:10;98994.28;;;28.10;40.83
39793;BME280;26080;42.264;24.536;2023-07-29T08:53:36;99006.78;;;28.18;41.10
39793;BME280;26080;42.264;24.536;2023-07-29T08:56:02;99004.16;;;28.24;42.87
39793;BME280;26080;42.264;24.536;2023-07-29T08:58:29;98992.56;;;28.24;44.77
39793;BME280;26080;42.264;24.536;2023-07-29T09:00:54;99008.47;;;28.40;39.83
39793;BME280;26080;42.264;24.536;2023-07-29T09:03:20;98999.91;;;28.37;39.29
39793;BME280;26080;42.264;24.536;2023-07-29T09:05:47;98987.91;;;28.18;38.92
39793;BME280;26080;42.264;24.536;2023-07-29T09:08:13;98995.06;;;28.25;40.61
39793;BME280;26080;42.264;24.536;2023-07-29T09:10:39;98983.81;;;28.22;39.87
39793;BME280;26080;42.264;24.536;2023-07-29T09:13:05;98982.28;;;28.13;38.90
39793;BME280;26080;42.264;24.536;2023-07-29T09:15:33;98984.84;;;28.21;39.18
39793;BME280;26080;42.264;24.536;2023-07-29T09:17:59;98973.16;;;28.28;38.85
39793;BME280;26080;42.264;24.536;2023-07-29T09:20:27;98976.97;;;28.41;38.88
39793;BME280;26080;42.264;24.536;2023-07-29T09:22:58;98976.59;;;28.44;39.60
39793;BME280;26080;42.264;24.536;2023-07-29T09:25:25;98953.19;;;28.44;43.19
39793;BME280;26080;42.264;24.536;2023-07-29T09:27:51;98968.47;;;28.65;44.21
39793;BME280;26080;42.264;24.536;2023-07-29T09:30:17;98969.25;;;28.87;43.46
39793;BME280;26080;42.264;24.536;2023-07-29T09:32:42;98966.66;;;29.00;43.47
39793;BME280;26080;42.264;24.536;2023-07-29T09:35:10;98965.88;;;29.13;41.96
39793;BME280;26080;42.264;24.536;2023-07-29T09:37:37;98962.56;;;29.17;36.97
39793;BME280;26080;42.264;24.536;2023-07-29T09:40:03;98956.59;;;29.22;42.94
39793;BME280;26080;42.264;24.536;2023-07-29T09:42:29;98954.19;;;29.34;42.00
39793;BME280;26080;42.264;24.536;2023-07-29T09:44:55;98943.19;;;29.42;32.75
39793;BME280;26080;42.264;24.536;2023-07-29T09:47:25;98948.25;;;29.52;36.09
39793;BME280;26080;42.264;24.536;2023-07-29T09:49:54;98941.59;;;29.54;42.15
39793;BME280;26080;42.264;24.536;2023-07-29T09:52:22;98942.06;;;29.64;37.00
39793;BME280;26080;42.264;24.536;2023-07-29T09:54:48;98943.09;;;29.70;38.72
39793;BME280;26080;42.264;24.536;2023-07-29T09:57:14;98937.06;;;29.68;37.56
39793;BME280;26080;42.264;24.536;2023-07-29T09:59:40;98937.31;;;29.79;37.56
39793;BME280;26080;42.264;24.536;2023-07-29T10:02:13;98935.06;;;29.90;34.16
39793;BME280;26080;42.264;24.536;2023-07-29T10:04:41;98943.34;;;29.95;35.72
39793;BME280;26080;42.264;24.536;2023-07-29T10:07:10;98935.88;;;29.97;32.31
39793;BME280;26080;42.264;24.536;2023-07-29T10:09:37;98934.63;;;29.93;33.97
39793;BME280;26080;42.264;24.536;2023-07-29T10:12:05;98931.09;;;29.99;32.19
39793;BME280;26080;42.264;24.536;2023-07-29T10:14:31;98935.88;;;29.97;31.65
39793;BME280;26080;42.264;24.536;2023-07-29T10:16:57;98932.13;;;29.98;31.74
39793;BME280;26080;42.264;24.536;2023-07-29T10:19:24;98903.06;;;29.80;31.65
39793;BME280;26080;42.264;24.536;2023-07-29T10:21:51;98923.41;;;29.83;32.07
39793;BME280;26080;42.264;24.536;2023-07-29T10:24:19;98931.69;;;29.88;35.51
39793;BME280;26080;42.264;24.536;2023-07-29T10:26:49;98924.28;;;30.03;35.29
39793;BME280;26080;42.264;24.536;2023-07-29T10:29:19;98919.91;;;30.15;34.66
39793;BME280;26080;42.264;24.536;2023-07-29T10:31:45;98916.00;;;30.18;34.17
39793;BME280;26080;42.264;24.536;2023-07-29T10:34:12;98917.44;;;30.20;34.42
39793;BME280;26080;42.264;24.536;2023-07-29T10:36:39;98902.69;;;30.23;36.40
39793;BME280;26080;42.264;24.536;2023-07-29T10:39:08;98901.25;;;30.33;35.82
39793;BME280;26080;42.264;24.536;2023-07-29T10:47:18;98899.34;;;30.67;35.74
39793;BME280;26080;42.264;24.536;2023-07-29T10:49:45;98892.88;;;30.68;32.36
39793;BME280;26080;42.264;24.536;2023-07-29T10:52:14;98888.53;;;30.67;34.39
39793;BME280;26080;42.264;24.536;2023-07-29T10:54:45;98889.34;;;30.74;34.21
39793;BME280;26080;42.264;24.536;2023-07-29T10:57:15;98878.53;;;30.74;34.91
39793;BME280;26080;42.264;24.536;2023-07-29T10:59:41;98869.19;;;30.70;32.43
39793;BME280;26080;42.264;24.536;2023-07-29T11:02:18;98876.66;;;30.75;31.71
39793;BME280;26080;42.264;24.536;2023-07-29T11:04:52;98877.88;;;30.79;35.48
39793;BME280;26080;42.264;24.536;2023-07-29T11:07:22;98866.00;;;30.93;32.82
39793;BME280;26080;42.264;24.536;2023-07-29T11:17:44;98855.91;;;31.20;35.32
39793;BME280;26080;42.264;24.536;2023-07-29T11:20:11;98858.38;;;31.28;33.32
39793;BME280;26080;42.264;24.536;2023-07-29T11:22:37;98858.41;;;31.21;32.58
39793;BME280;26080;42.264;24.536;2023-07-29T11:25:03;98849.66;;;31.26;30.04
39793;BME280;26080;42.264;24.536;2023-07-29T11:27:30;98857.94;;;31.31;29.53
39793;BME280;26080;42.264;24.536;2023-07-29T11:30:07;98854.34;;;31.37;31.25
39793;BME280;26080;42.264;24.536;2023-07-29T11:32:37;98842.94;;;31.35;30.47
39793;BME280;26080;42.264;24.536;2023-07-29T11:37:29;98820.25;;;31.36;30.05
39793;BME280;26080;42.264;24.536;2023-07-29T11:39:54;98836.38;;;31.49;30.74
39793;BME280;26080;42.264;24.536;2023-07-29T11:42:20;98835.75;;;31.54;29.92
39793;BME280;26080;42.264;24.536;2023-07-29T11:44:46;98827.22;;;31.50;31.52
39793;BME280;26080;42.264;24.536;2023-07-29T11:47:12;98825.47;;;31.63;30.44
39793;BME280;26080;42.264;24.536;2023-07-29T11:49:39;98826.03;;;31.71;31.36
39793;BME280;26080;42.264;24.536;2023-07-29T11:52:09;98822.28;;;31.72;29.97
39793;BME280;26080;42.264;24.536;2023-07-29T11:54:35;98794.38;;;31.72;28.08
39793;BME280;26080;42.264;24.536;2023-07-29T11:57:07;98815.50;;;31.88;29.56
39793;BME280;26080;42.264;24.536;2023-07-29T11:59:36;98796.63;;;31.81;28.79
39793;BME280;26080;42.264;24.536;2023-07-29T12:02:27;98816.59;;;32.05;28.97
39793;BME280;26080;42.264;24.536;2023-07-29T12:04:52;98805.53;;;32.07;28.18
39793;BME280;26080;42.264;24.536;2023-07-29T12:07:18;98792.63;;;32.09;28.42
39793;BME280;26080;42.264;24.536;2023-07-29T12:09:46;98778.03;;;32.10;26.87
39793;BME280;26080;42.264;24.536;2023-07-29T12:12:11;98792.28;;;32.24;27.31
39793;BME280;26080;42.264;24.536;2023-07-29T12:14:37;98789.22;;;32.38;27.42
39793;BME280;26080;42.264;24.536;2023-07-29T12:17:05;98779.88;;;32.53;29.85
39793;BME280;26080;42.264;24.536;2023-07-29T12:19:38;98784.78;;;32.62;28.15
39793;BME280;26080;42.264;24.536;2023-07-29T12:22:05;98789.88;;;32.70;31.89
39793;BME280;26080;42.264;24.536;2023-07-29T12:24:38;98782.94;;;32.75;26.77
39793;BME280;26080;42.264;24.536;2023-07-29T12:27:05;98780.09;;;32.69;27.75
39793;BME280;26080;42.264;24.536;2023-07-29T12:29:30;98787.66;;;32.49;27.52
39793;BME280;26080;42.264;24.536;2023-07-29T12:31:58;98780.50;;;32.55;27.45
39793;BME280;26080;42.264;24.536;2023-07-29T12:34:25;98781.44;;;32.60;26.48
39793;BME280;26080;42.264;24.536;2023-07-29T12:36:52;98779.03;;;32.70;30.11
39793;BME280;26080;42.264;24.536;2023-07-29T12:39:27;98770.53;;;32.85;27.15
39793;BME280;26080;42.264;24.536;2023-07-29T12:41:57;98763.97;;;32.93;25.91
39793;BME280;26080;42.264;24.536;2023-07-29T12:44:24;98752.75;;;32.89;25.72
39793;BME280;26080;42.264;24.536;2023-07-29T12:46:50;98748.19;;;32.90;27.94
39793;BME280;26080;42.264;24.536;2023-07-29T12:49:16;98767.28;;;32.95;27.57
39793;BME280;26080;42.264;24.536;2023-07-29T12:51:41;98753.28;;;32.80;27.38
39793;BME280;26080;42.264;24.536;2023-07-29T12:54:07;98769.63;;;32.73;26.79
39793;BME280;26080;42.264;24.536;2023-07-29T12:56:33;98760.44;;;32.74;27.57
39793;BME280;26080;42.264;24.536;2023-07-29T12:59:00;98769.53;;;32.80;26.31
39793;BME280;26080;42.264;24.536;2023-07-29T13:01:26;98754.19;;;32.74;27.60
39793;BME280;26080;42.264;24.536;2023-07-29T13:03:53;98745.16;;;32.80;27.91
39793;BME280;26080;42.264;24.536;2023-07-29T13:06:19;98767.66;;;32.98;28.03
39793;BME280;26080;42.264;24.536;2023-07-29T13:08:45;98767.84;;;33.27;28.85
39793;BME280;26080;42.264;24.536;2023-07-29T13:11:11;98732.28;;;33.35;26.64
39793;BME280;26080;42.264;24.536;2023-07-29T13:13:37;98765.16;;;33.80;26.69
39793;BME280;26080;42.264;24.536;2023-07-29T13:16:03;98743.22;;;33.94;25.97
39793;BME280;26080;42.264;24.536;2023-07-29T13:18:28;98754.53;;;34.26;24.28